sensor_id;sensor_type;location;lat;lon;timestamp;P1;durP1;ratioP1;P2;durP2;ratioP2
67195;SDS011;54122;53.538;49.366;2023-10-08T00:02:24;1.67;;;0.32;;
67195;SDS011;54122;53.538;49.366;2023-10-08T00:04:51;1.38;;;0.50;;
67195;SDS011;54122;53.538;49.366;2023-10-08T00:07:21;9.95;;;0.32;;
67195;SDS011;54122;53.538;49.366;2023-10-08T00:09:49;0.10;;;0.03;;
67195;SDS011;54122;53.538;49.366;2023-10-08T00:12:19;1.00;;;0.35;;
67195;SDS011;54122;53.538;49.366;2023-10-08T00:14:49;0.35;;;0.20;;
67195;SDS011;54122;53.538;49.366;2023-10-08T00:17:18;0.28;;;0.10;;
67195;SDS011;54122;53.538;49.366;2023-10-08T00:19:44;1.65;;;0.60;;
67195;SDS011;54122;53.538;49.366;2023-10-08T00:22:11;2.78;;;0.75;;
67195;SDS011;54122;53.538;49.366;2023-10-08T00:24:39;0.85;;;0.40;;
67195;SDS011;54122;53.538;49.366;2023-10-08T00:27:07;0.93;;;0.40;;
67195;SDS011;54122;53.538;49.366;2023-10-08T00:29:40;1.40;;;0.50;;
67195;SDS011;54122;53.538;49.366;2023-10-08T00:32:08;3.05;;;0.40;;
67195;SDS011;54122;53.538;49.366;2023-10-08T00:34:38;2.00;;;0.63;;
67195;SDS011;54122;53.538;49.366;2023-10-08T00:37:09;0.60;;;0.50;;
67195;SDS011;54122;53.538;49.366;2023-10-08T00:39:36;2.90;;;0.50;;
67195;SDS011;54122;53.538;49.366;2023-10-08T00:42:05;1.17;;;0.40;;
67195;SDS011;54122;53.538;49.366;2023-10-08T00:44:36;3.15;;;0.50;;
67195;SDS011;54122;53.538;49.366;2023-10-08T00:47:16;1.08;;;0.70;;
67195;SDS011;54122;53.538;49.366;2023-10-08T00:49:45;3.30;;;0.22;;
67195;SDS011;54122;53.538;49.366;2023-10-08T00:52:12;1.27;;;0.40;;
67195;SDS011;54122;53.538;49.366;2023-10-08T00:54:40;0.47;;;0.30;;
67195;SDS011;54122;53.538;49.366;2023-10-08T00:57:29;1.58;;;0.65;;
67195;SDS011;54122;53.538;49.366;2023-10-08T00:59:56;0.70;;;0.47;;
67195;SDS011;54122;53.538;49.366;2023-10-08T01:02:24;1.05;;;0.40;;
67195;SDS011;54122;53.538;49.366;2023-10-08T01:05:11;0.95;;;0.50;;
67195;SDS011;54122;53.538;49.366;2023-10-08T01:07:43;10.55;;;0.40;;
67195;SDS011;54122;53.538;49.366;2023-10-08T01:10:16;0.85;;;0.40;;
67195;SDS011;54122;53.538;49.366;2023-10-08T01:12:46;0.40;;;0.20;;
67195;SDS011;54122;53.538;49.366;2023-10-08T01:15:29;0.45;;;0.20;;
67195;SDS011;54122;53.538;49.366;2023-10-08T01:17:57;0.50;;;0.32;;
67195;SDS011;54122;53.538;49.366;2023-10-08T01:20:26;28.05;;;1.38;;
67195;SDS011;54122;53.538;49.366;2023-10-08T01:23:06;1.92;;;0.60;;
67195;SDS011;54122;53.538;49.366;2023-10-08T01:25:39;5.95;;;0.63;;
67195;SDS011;54122;53.538;49.366;2023-10-08T01:28:07;0.77;;;0.35;;
67195;SDS011;54122;53.538;49.366;2023-10-08T01:30:57;1.55;;;0.43;;
67195;SDS011;54122;53.538;49.366;2023-10-08T01:33:26;0.38;;;0.30;;
67195;SDS011;54122;53.538;49.366;2023-10-08T01:35:57;1.40;;;0.30;;
67195;SDS011;54122;53.538;49.366;2023-10-08T01:38:38;0.68;;;0.40;;
67195;SDS011;54122;53.538;49.366;2023-10-08T01:41:07;1.48;;;0.25;;
67195;SDS011;54122;53.538;49.366;2023-10-08T01:43:48;0.88;;;0.35;;
67195;SDS011;54122;53.538;49.366;2023-10-08T01:46:17;0.40;;;0.20;;
67195;SDS011;54122;53.538;49.366;2023-10-08T01:48:47;6.68;;;0.55;;
67195;SDS011;54122;53.538;49.366;2023-10-08T01:51:19;1.05;;;0.45;;
67195;SDS011;54122;53.538;49.366;2023-10-08T01:54:01;0.63;;;0.30;;
67195;SDS011;54122;53.538;49.366;2023-10-08T01:56:28;1.85;;;0.20;;
67195;SDS011;54122;53.538;49.366;2023-10-08T01:58:55;0.20;;;0.10;;
67195;SDS011;54122;53.538;49.366;2023-10-08T02:01:21;1.77;;;0.60;;
67195;SDS011;54122;53.538;49.366;2023-10-08T02:03:47;0.22;;;0.20;;
67195;SDS011;54122;53.538;49.366;2023-10-08T02:06:14;0.98;;;0.35;;
67195;SDS011;54122;53.538;49.366;2023-10-08T02:08:40;0.73;;;0.30;;
67195;SDS011;54122;53.538;49.366;2023-10-08T02:11:07;3.22;;;1.05;;
67195;SDS011;54122;53.538;49.366;2023-10-08T02:13:34;1.13;;;0.50;;
67195;SDS011;54122;53.538;49.366;2023-10-08T02:16:00;0.43;;;0.28;;
67195;SDS011;54122;53.538;49.366;2023-10-08T02:18:27;0.43;;;0.25;;
67195;SDS011;54122;53.538;49.366;2023-10-08T02:20:54;0.10;;;0.10;;
67195;SDS011;54122;53.538;49.366;2023-10-08T02:23:20;0.22;;;0.22;;
67195;SDS011;54122;53.538;49.366;2023-10-08T02:25:47;0.35;;;0.20;;
67195;SDS011;54122;53.538;49.366;2023-10-08T02:28:13;0.17;;;0.17;;
67195;SDS011;54122;53.538;49.366;2023-10-08T02:30:41;0.98;;;0.50;;
67195;SDS011;54122;53.538;49.366;2023-10-08T02:33:08;0.47;;;0.25;;
67195;SDS011;54122;53.538;49.366;2023-10-08T02:35:43;2.40;;;0.22;;
67195;SDS011;54122;53.538;49.366;2023-10-08T02:38:14;1.23;;;0.35;;
67195;SDS011;54122;53.538;49.366;2023-10-08T02:40:42;0.30;;;0.20;;
67195;SDS011;54122;53.538;49.366;2023-10-08T02:43:14;0.68;;;0.50;;
67195;SDS011;54122;53.538;49.366;2023-10-08T02:45:41;0.22;;;0.20;;
67195;SDS011;54122;53.538;49.366;2023-10-08T02:48:09;0.47;;;0.30;;
67195;SDS011;54122;53.538;49.366;2023-10-08T02:50:39;0.47;;;0.30;;
67195;SDS011;54122;53.538;49.366;2023-10-08T02:53:09;1.05;;;0.57;;
67195;SDS011;54122;53.538;49.366;2023-10-08T02:55:43;1.40;;;0.35;;
67195;SDS011;54122;53.538;49.366;2023-10-08T02:58:15;0.90;;;0.40;;
67195;SDS011;54122;53.538;49.366;2023-10-08T03:00:44;0.70;;;0.40;;
67195;SDS011;54122;53.538;49.366;2023-10-08T03:03:15;2.00;;;0.38;;
67195;SDS011;54122;53.538;49.366;2023-10-08T03:05:43;0.45;;;0.20;;
67195;SDS011;54122;53.538;49.366;2023-10-08T03:08:12;0.63;;;0.50;;
67195;SDS011;54122;53.538;49.366;2023-10-08T03:10:50;3.72;;;0.50;;
67195;SDS011;54122;53.538;49.366;2023-10-08T03:13:28;2.08;;;0.60;;
67195;SDS011;54122;53.538;49.366;2023-10-08T03:15:54;0.60;;;0.52;;
67195;SDS011;54122;53.538;49.366;2023-10-08T03:21:04;1.60;;;0.50;;
67195;SDS011;54122;53.538;49.366;2023-10-08T03:23:45;0.82;;;0.52;;
67195;SDS011;54122;53.538;49.366;2023-10-08T03:26:16;1.80;;;0.60;;
67195;SDS011;54122;53.538;49.366;2023-10-08T03:29:04;17.13;;;0.95;;
67195;SDS011;54122;53.538;49.366;2023-10-08T03:31:33;3.03;;;0.55;;
67195;SDS011;54122;53.538;49.366;2023-10-08T03:34:15;0.52;;;0.52;;
67195;SDS011;54122;53.538;49.366;2023-10-08T03:36:44;0.85;;;0.50;;
67195;SDS011;54122;53.538;49.366;2023-10-08T03:39:11;3.83;;;1.13;;
67195;SDS011;54122;53.538;49.366;2023-10-08T03:41:39;2.17;;;0.50;;
67195;SDS011;54122;53.538;49.366;2023-10-08T03:44:06;1.67;;;0.75;;
67195;SDS011;54122;53.538;49.366;2023-10-08T03:46:42;0.70;;;0.60;;
67195;SDS011;54122;53.538;49.366;2023-10-08T03:49:17;4.97;;;0.90;;
67195;SDS011;54122;53.538;49.366;2023-10-08T03:51:47;0.80;;;0.63;;
67195;SDS011;54122;53.538;49.366;2023-10-08T03:54:17;1.05;;;0.70;;
67195;SDS011;54122;53.538;49.366;2023-10-08T03:56:45;3.33;;;0.82;;
67195;SDS011;54122;53.538;49.366;2023-10-08T03:59:12;2.97;;;1.00;;
67195;SDS011;54122;53.538;49.366;2023-10-08T04:01:43;1.70;;;0.85;;
67195;SDS011;54122;53.538;49.366;2023-10-08T04:04:09;1.30;;;0.70;;
67195;SDS011;54122;53.538;49.366;2023-10-08T04:06:41;1.30;;;0.77;;
67195;SDS011;54122;53.538;49.366;2023-10-08T04:09:17;1.42;;;0.95;;
67195;SDS011;54122;53.538;49.366;2023-10-08T04:11:43;1.70;;;0.60;;
67195;SDS011;54122;53.538;49.366;2023-10-08T04:14:13;1.75;;;1.08;;
67195;SDS011;54122;53.538;49.366;2023-10-08T04:16:42;2.13;;;1.17;;
67195;SDS011;54122;53.538;49.366;2023-10-08T04:19:08;1.20;;;0.85;;
67195;SDS011;54122;53.538;49.366;2023-10-08T04:21:35;1.33;;;0.88;;
67195;SDS011;54122;53.538;49.366;2023-10-08T04:24:02;2.22;;;1.33;;
67195;SDS011;54122;53.538;49.366;2023-10-08T04:26:29;1.55;;;0.88;;
67195;SDS011;54122;53.538;49.366;2023-10-08T04:28:57;2.35;;;1.17;;
67195;SDS011;54122;53.538;49.366;2023-10-08T04:31:27;1.60;;;0.98;;
67195;SDS011;54122;53.538;49.366;2023-10-08T04:34:05;2.65;;;1.58;;
67195;SDS011;54122;53.538;49.366;2023-10-08T04:36:42;7.65;;;1.10;;
67195;SDS011;54122;53.538;49.366;2023-10-08T04:39:11;6.35;;;0.93;;
67195;SDS011;54122;53.538;49.366;2023-10-08T04:41:41;2.15;;;1.02;;
67195;SDS011;54122;53.538;49.366;2023-10-08T04:44:09;1.33;;;0.85;;
67195;SDS011;54122;53.538;49.366;2023-10-08T04:46:44;0.68;;;0.50;;
67195;SDS011;54122;53.538;49.366;2023-10-08T04:49:10;0.85;;;0.55;;
67195;SDS011;54122;53.538;49.366;2023-10-08T04:51:51;0.80;;;0.50;;
67195;SDS011;54122;53.538;49.366;2023-10-08T04:54:25;9.93;;;0.90;;
67195;SDS011;54122;53.538;49.366;2023-10-08T04:56:59;1.10;;;0.68;;
67195;SDS011;54122;53.538;49.366;2023-10-08T04:59:27;0.60;;;0.50;;
67195;SDS011;54122;53.538;49.366;2023-10-08T05:02:04;1.35;;;0.60;;
67195;SDS011;54122;53.538;49.366;2023-10-08T05:04:52;1.25;;;0.30;;
67195;SDS011;54122;53.538;49.366;2023-10-08T05:07:18;1.15;;;0.30;;
67195;SDS011;54122;53.538;49.366;2023-10-08T05:10:17;1.02;;;0.60;;
67195;SDS011;54122;53.538;49.366;2023-10-08T05:12:49;0.95;;;0.43;;
67195;SDS011;54122;53.538;49.366;2023-10-08T05:15:31;1.48;;;0.75;;
67195;SDS011;54122;53.538;49.366;2023-10-08T05:18:13;0.55;;;0.30;;
67195;SDS011;54122;53.538;49.366;2023-10-08T05:20:50;0.88;;;0.35;;
67195;SDS011;54122;53.538;49.366;2023-10-08T05:23:18;2.65;;;0.73;;
67195;SDS011;54122;53.538;49.366;2023-10-08T05:25:51;3.15;;;0.90;;
67195;SDS011;54122;53.538;49.366;2023-10-08T05:28:39;2.72;;;0.43;;
67195;SDS011;54122;53.538;49.366;2023-10-08T05:31:41;1.02;;;0.40;;
67195;SDS011;54122;53.538;49.366;2023-10-08T05:34:08;0.30;;;0.20;;
67195;SDS011;54122;53.538;49.366;2023-10-08T05:36:46;1.17;;;0.38;;
67195;SDS011;54122;53.538;49.366;2023-10-08T05:39:35;2.25;;;0.30;;
67195;SDS011;54122;53.538;49.366;2023-10-08T05:42:05;0.10;;;0.10;;
67195;SDS011;54122;53.538;49.366;2023-10-08T05:44:39;0.38;;;0.20;;
67195;SDS011;54122;53.538;49.366;2023-10-08T05:47:29;0.55;;;0.20;;
67195;SDS011;54122;53.538;49.366;2023-10-08T05:50:01;0.75;;;0.20;;
67195;SDS011;54122;53.538;49.366;2023-10-08T05:52:44;2.35;;;0.20;;
67195;SDS011;54122;53.538;49.366;2023-10-08T05:55:37;0.10;;;0.10;;
67195;SDS011;54122;53.538;49.366;2023-10-08T05:58:13;2.63;;;0.35;;
67195;SDS011;54122;53.538;49.366;2023-10-08T06:00:46;0.00;;;0.00;;
67195;SDS011;54122;53.538;49.366;2023-10-08T06:03:16;0.73;;;0.20;;
67195;SDS011;54122;53.538;49.366;2023-10-08T06:06:01;0.22;;;0.20;;
67195;SDS011;54122;53.538;49.366;2023-10-08T06:08:39;0.45;;;0.15;;
67195;SDS011;54122;53.538;49.366;2023-10-08T06:11:19;0.28;;;0.15;;
67195;SDS011;54122;53.538;49.366;2023-10-08T06:14:04;0.30;;;0.20;;
67195;SDS011;54122;53.538;49.366;2023-10-08T06:16:43;1.65;;;0.35;;
67195;SDS011;54122;53.538;49.366;2023-10-08T06:19:13;0.43;;;0.20;;
67195;SDS011;54122;53.538;49.366;2023-10-08T06:21:41;0.10;;;0.10;;
67195;SDS011;54122;53.538;49.366;2023-10-08T06:24:08;0.22;;;0.17;;
67195;SDS011;54122;53.538;49.366;2023-10-08T06:26:36;0.90;;;0.20;;
67195;SDS011;54122;53.538;49.366;2023-10-08T06:31:45;2.00;;;0.40;;
67195;SDS011;54122;53.538;49.366;2023-10-08T06:34:22;0.30;;;0.10;;
67195;SDS011;54122;53.538;49.366;2023-10-08T06:36:53;1.08;;;0.28;;
67195;SDS011;54122;53.538;49.366;2023-10-08T06:39:21;0.68;;;0.10;;
67195;SDS011;54122;53.538;49.366;2023-10-08T06:41:59;0.22;;;0.13;;
67195;SDS011;54122;53.538;49.366;2023-10-08T06:44:26;0.75;;;0.40;;
67195;SDS011;54122;53.538;49.366;2023-10-08T06:46:53;1.38;;;0.70;;
67195;SDS011;54122;53.538;49.366;2023-10-08T06:49:25;0.20;;;0.10;;
67195;SDS011;54122;53.538;49.366;2023-10-08T06:51:51;3.97;;;2.63;;
67195;SDS011;54122;53.538;49.366;2023-10-08T06:54:19;0.85;;;0.17;;
67195;SDS011;54122;53.538;49.366;2023-10-08T06:56:48;3.10;;;0.38;;
67195;SDS011;54122;53.538;49.366;2023-10-08T06:59:21;0.15;;;0.10;;
67195;SDS011;54122;53.538;49.366;2023-10-08T07:01:49;0.40;;;0.20;;
67195;SDS011;54122;53.538;49.366;2023-10-08T07:04:17;0.43;;;0.10;;
67195;SDS011;54122;53.538;49.366;2023-10-08T07:06:44;0.82;;;0.45;;
67195;SDS011;54122;53.538;49.366;2023-10-08T07:09:16;0.30;;;0.20;;
67195;SDS011;54122;53.538;49.366;2023-10-08T07:11:52;1.85;;;0.40;;
67195;SDS011;54122;53.538;49.366;2023-10-08T07:14:23;0.52;;;0.20;;
67195;SDS011;54122;53.538;49.366;2023-10-08T07:16:55;0.10;;;0.10;;
67195;SDS011;54122;53.538;49.366;2023-10-08T07:19:29;0.55;;;0.03;;
67195;SDS011;54122;53.538;49.366;2023-10-08T07:21:59;0.30;;;0.20;;
67195;SDS011;54122;53.538;49.366;2023-10-08T07:24:31;0.00;;;0.00;;
67195;SDS011;54122;53.538;49.366;2023-10-08T07:27:03;0.10;;;0.10;;
67195;SDS011;54122;53.538;49.366;2023-10-08T07:29:35;0.98;;;0.20;;
67195;SDS011;54122;53.538;49.366;2023-10-08T07:32:02;0.38;;;0.20;;
67195;SDS011;54122;53.538;49.366;2023-10-08T07:34:36;0.32;;;0.17;;
67195;SDS011;54122;53.538;49.366;2023-10-08T07:37:03;6.22;;;0.20;;
67195;SDS011;54122;53.538;49.366;2023-10-08T07:39:31;0.70;;;0.22;;
67195;SDS011;54122;53.538;49.366;2023-10-08T07:41:59;1.27;;;0.32;;
67195;SDS011;54122;53.538;49.366;2023-10-08T07:44:32;2.65;;;0.20;;
67195;SDS011;54122;53.538;49.366;2023-10-08T07:47:01;0.82;;;0.22;;
67195;SDS011;54122;53.538;49.366;2023-10-08T07:49:36;0.47;;;0.25;;
67195;SDS011;54122;53.538;49.366;2023-10-08T07:52:02;0.28;;;0.10;;
67195;SDS011;54122;53.538;49.366;2023-10-08T07:54:32;0.82;;;0.20;;
67195;SDS011;54122;53.538;49.366;2023-10-08T07:57:02;1.13;;;0.20;;
67195;SDS011;54122;53.538;49.366;2023-10-08T07:59:37;0.10;;;0.10;;
67195;SDS011;54122;53.538;49.366;2023-10-08T08:02:08;1.55;;;0.45;;
67195;SDS011;54122;53.538;49.366;2023-10-08T08:04:39;0.80;;;0.10;;
67195;SDS011;54122;53.538;49.366;2023-10-08T08:07:08;0.40;;;0.15;;
67195;SDS011;54122;53.538;49.366;2023-10-08T08:09:42;0.38;;;0.08;;
67195;SDS011;54122;53.538;49.366;2023-10-08T08:12:20;0.45;;;0.10;;
67195;SDS011;54122;53.538;49.366;2023-10-08T08:14:47;0.38;;;0.17;;
67195;SDS011;54122;53.538;49.366;2023-10-08T08:17:14;1.20;;;0.20;;
67195;SDS011;54122;53.538;49.366;2023-10-08T08:19:46;0.55;;;0.10;;
67195;SDS011;54122;53.538;49.366;2023-10-08T08:22:13;0.28;;;0.17;;
67195;SDS011;54122;53.538;49.366;2023-10-08T08:24:57;0.30;;;0.10;;
67195;SDS011;54122;53.538;49.366;2023-10-08T08:27:44;0.10;;;0.00;;
67195;SDS011;54122;53.538;49.366;2023-10-08T08:30:14;0.82;;;0.28;;
67195;SDS011;54122;53.538;49.366;2023-10-08T08:32:44;0.45;;;0.20;;
67195;SDS011;54122;53.538;49.366;2023-10-08T08:35:15;0.70;;;0.10;;
67195;SDS011;54122;53.538;49.366;2023-10-08T08:37:42;0.13;;;0.10;;
67195;SDS011;54122;53.538;49.366;2023-10-08T08:40:09;0.10;;;0.10;;
67195;SDS011;54122;53.538;49.366;2023-10-08T08:42:47;0.10;;;0.10;;
67195;SDS011;54122;53.538;49.366;2023-10-08T08:45:22;0.20;;;0.17;;
67195;SDS011;54122;53.538;49.366;2023-10-08T08:47:59;3.17;;;0.60;;
67195;SDS011;54122;53.538;49.366;2023-10-08T08:50:26;0.85;;;0.47;;
67195;SDS011;54122;53.538;49.366;2023-10-08T08:52:53;0.20;;;0.10;;
67195;SDS011;54122;53.538;49.366;2023-10-08T08:55:21;1.00;;;0.35;;
67195;SDS011;54122;53.538;49.366;2023-10-08T08:57:48;1.77;;;0.13;;
67195;SDS011;54122;53.538;49.366;2023-10-08T09:00:19;0.43;;;0.10;;
67195;SDS011;54122;53.538;49.366;2023-10-08T09:02:53;0.32;;;0.10;;
67195;SDS011;54122;53.538;49.366;2023-10-08T09:05:24;0.10;;;0.00;;
67195;SDS011;54122;53.538;49.366;2023-10-08T09:07:57;4.18;;;0.25;;
67195;SDS011;54122;53.538;49.366;2023-10-08T09:10:30;0.98;;;0.05;;
67195;SDS011;54122;53.538;49.366;2023-10-08T09:13:03;0.55;;;0.20;;
67195;SDS011;54122;53.538;49.366;2023-10-08T09:15:30;0.52;;;0.15;;
67195;SDS011;54122;53.538;49.366;2023-10-08T09:18:02;0.55;;;0.10;;
67195;SDS011;54122;53.538;49.366;2023-10-08T09:20:30;2.55;;;0.20;;
67195;SDS011;54122;53.538;49.366;2023-10-08T09:23:15;0.20;;;0.10;;
67195;SDS011;54122;53.538;49.366;2023-10-08T09:25:47;1.98;;;0.10;;
67195;SDS011;54122;53.538;49.366;2023-10-08T09:28:19;0.38;;;0.00;;
67195;SDS011;54122;53.538;49.366;2023-10-08T09:30:47;0.30;;;0.20;;
67195;SDS011;54122;53.538;49.366;2023-10-08T09:33:20;3.40;;;0.10;;
67195;SDS011;54122;53.538;49.366;2023-10-08T09:35:47;0.00;;;0.00;;
67195;SDS011;54122;53.538;49.366;2023-10-08T09:38:14;0.10;;;0.00;;
67195;SDS011;54122;53.538;49.366;2023-10-08T09:40:48;0.40;;;0.10;;
67195;SDS011;54122;53.538;49.366;2023-10-08T09:43:18;0.95;;;0.22;;
67195;SDS011;54122;53.538;49.366;2023-10-08T09:46:19;1.70;;;0.15;;
67195;SDS011;54122;53.538;49.366;2023-10-08T09:48:52;0.38;;;0.10;;
67195;SDS011;54122;53.538;49.366;2023-10-08T09:51:25;0.28;;;0.10;;
67195;SDS011;54122;53.538;49.366;2023-10-08T09:54:05;0.10;;;0.10;;
67195;SDS011;54122;53.538;49.366;2023-10-08T09:56:41;0.28;;;0.10;;
67195;SDS011;54122;53.538;49.366;2023-10-08T09:59:11;0.10;;;0.05;;
67195;SDS011;54122;53.538;49.366;2023-10-08T10:01:43;0.00;;;0.00;;
67195;SDS011;54122;53.538;49.366;2023-10-08T10:04:22;0.15;;;0.10;;
67195;SDS011;54122;53.538;49.366;2023-10-08T10:06:57;1.88;;;0.08;;
67195;SDS011;54122;53.538;49.366;2023-10-08T10:09:24;0.15;;;0.10;;
67195;SDS011;54122;53.538;49.366;2023-10-08T10:11:52;0.35;;;0.13;;
67195;SDS011;54122;53.538;49.366;2023-10-08T10:14:23;0.03;;;0.00;;
67195;SDS011;54122;53.538;49.366;2023-10-08T10:20:01;0.10;;;0.00;;
67195;SDS011;54122;53.538;49.366;2023-10-08T10:22:39;2.63;;;0.08;;
67195;SDS011;54122;53.538;49.366;2023-10-08T10:25:09;0.45;;;0.15;;
67195;SDS011;54122;53.538;49.366;2023-10-08T10:30:32;0.17;;;0.00;;
67195;SDS011;54122;53.538;49.366;2023-10-08T10:33:00;0.65;;;0.10;;
67195;SDS011;54122;53.538;49.366;2023-10-08T10:35:27;0.30;;;0.10;;
67195;SDS011;54122;53.538;49.366;2023-10-08T10:37:56;0.17;;;0.10;;
67195;SDS011;54122;53.538;49.366;2023-10-08T10:40:28;0.10;;;0.00;;
67195;SDS011;54122;53.538;49.366;2023-10-08T10:43:05;1.55;;;0.00;;
67195;SDS011;54122;53.538;49.366;2023-10-08T10:45:35;0.00;;;0.00;;
67195;SDS011;54122;53.538;49.366;2023-10-08T10:48:13;0.63;;;0.30;;
67195;SDS011;54122;53.538;49.366;2023-10-08T10:50:45;0.20;;;0.10;;
67195;SDS011;54122;53.538;49.366;2023-10-08T10:53:37;0.20;;;0.00;;
67195;SDS011;54122;53.538;49.366;2023-10-08T10:56:25;7.68;;;0.15;;
67195;SDS011;54122;53.538;49.366;2023-10-08T10:59:01;0.20;;;0.10;;
67195;SDS011;54122;53.538;49.366;2023-10-08T11:02:06;5.70;;;0.30;;
67195;SDS011;54122;53.538;49.366;2023-10-08T11:04:34;0.93;;;0.20;;
67195;SDS011;54122;53.538;49.366;2023-10-08T11:07:18;0.50;;;0.20;;
67195;SDS011;54122;53.538;49.366;2023-10-08T11:09:49;6.53;;;0.17;;
67195;SDS011;54122;53.538;49.366;2023-10-08T11:12:18;0.20;;;0.20;;
67195;SDS011;54122;53.538;49.366;2023-10-08T11:14:48;0.20;;;0.10;;
67195;SDS011;54122;53.538;49.366;2023-10-08T11:17:22;0.00;;;0.00;;
67195;SDS011;54122;53.538;49.366;2023-10-08T11:19:50;0.82;;;0.13;;
67195;SDS011;54122;53.538;49.366;2023-10-08T11:22:16;0.28;;;0.00;;
67195;SDS011;54122;53.538;49.366;2023-10-08T11:24:44;1.27;;;0.00;;
67195;SDS011;54122;53.538;49.366;2023-10-08T11:27:16;0.10;;;0.10;;
67195;SDS011;54122;53.538;49.366;2023-10-08T11:29:57;1.13;;;0.10;;
67195;SDS011;54122;53.538;49.366;2023-10-08T11:32:26;0.28;;;0.10;;
67195;SDS011;54122;53.538;49.366;2023-10-08T11:34:58;0.10;;;0.00;;
67195;SDS011;54122;53.538;49.366;2023-10-08T11:37:30;0.30;;;0.10;;
67195;SDS011;54122;53.538;49.366;2023-10-08T11:40:01;0.47;;;0.20;;
67195;SDS011;54122;53.538;49.366;2023-10-08T11:42:43;0.43;;;0.30;;
67195;SDS011;54122;53.538;49.366;2023-10-08T11:45:16;3.85;;;0.10;;
67195;SDS011;54122;53.538;49.366;2023-10-08T11:47:50;1.30;;;0.45;;
67195;SDS011;54122;53.538;49.366;2023-10-08T11:50:33;12.32;;;3.00;;
67195;SDS011;54122;53.538;49.366;2023-10-08T11:53:10;10.20;;;2.10;;
67195;SDS011;54122;53.538;49.366;2023-10-08T11:55:39;11.43;;;2.78;;
67195;SDS011;54122;53.538;49.366;2023-10-08T11:58:11;14.85;;;3.53;;
67195;SDS011;54122;53.538;49.366;2023-10-08T12:00:48;14.43;;;3.78;;
67195;SDS011;54122;53.538;49.366;2023-10-08T12:05:47;14.50;;;4.50;;
67195;SDS011;54122;53.538;49.366;2023-10-08T12:08:15;10.05;;;2.00;;
67195;SDS011;54122;53.538;49.366;2023-10-08T12:10:48;2.63;;;1.33;;
67195;SDS011;54122;53.538;49.366;2023-10-08T12:13:20;0.30;;;0.20;;
67195;SDS011;54122;53.538;49.366;2023-10-08T12:18:40;1.27;;;0.20;;
67195;SDS011;54122;53.538;49.366;2023-10-08T12:21:08;3.33;;;1.17;;
67195;SDS011;54122;53.538;49.366;2023-10-08T12:23:41;1.08;;;0.45;;
67195;SDS011;54122;53.538;49.366;2023-10-08T12:26:15;1.60;;;0.20;;
67195;SDS011;54122;53.538;49.366;2023-10-08T12:28:48;2.95;;;0.40;;
67195;SDS011;54122;53.538;49.366;2023-10-08T12:31:15;0.40;;;0.20;;
67195;SDS011;54122;53.538;49.366;2023-10-08T12:33:50;0.38;;;0.17;;
67195;SDS011;54122;53.538;49.366;2023-10-08T12:36:20;0.13;;;0.10;;
67195;SDS011;54122;53.538;49.366;2023-10-08T12:38:49;0.35;;;0.08;;
67195;SDS011;54122;53.538;49.366;2023-10-08T12:41:26;1.02;;;0.30;;
67195;SDS011;54122;53.538;49.366;2023-10-08T12:43:53;6.22;;;0.20;;
67195;SDS011;54122;53.538;49.366;2023-10-08T12:46:20;0.30;;;0.10;;
67195;SDS011;54122;53.538;49.366;2023-10-08T12:48:52;0.55;;;0.38;;
67195;SDS011;54122;53.538;49.366;2023-10-08T12:51:21;4.80;;;0.30;;
67195;SDS011;54122;53.538;49.366;2023-10-08T12:53:51;0.25;;;0.13;;
67195;SDS011;54122;53.538;49.366;2023-10-08T12:56:29;0.20;;;0.10;;
67195;SDS011;54122;53.538;49.366;2023-10-08T12:59:04;0.35;;;0.17;;
67195;SDS011;54122;53.538;49.366;2023-10-08T13:01:34;0.55;;;0.25;;
67195;SDS011;54122;53.538;49.366;2023-10-08T13:04:02;1.08;;;0.10;;
67195;SDS011;54122;53.538;49.366;2023-10-08T13:06:33;0.20;;;0.10;;
67195;SDS011;54122;53.538;49.366;2023-10-08T13:09:03;0.65;;;0.22;;
67195;SDS011;54122;53.538;49.366;2023-10-08T13:11:39;0.30;;;0.10;;
67195;SDS011;54122;53.538;49.366;2023-10-08T13:14:06;0.57;;;0.30;;
67195;SDS011;54122;53.538;49.366;2023-10-08T13:16:33;0.50;;;0.20;;
67195;SDS011;54122;53.538;49.366;2023-10-08T13:19:03;0.20;;;0.20;;
67195;SDS011;54122;53.538;49.366;2023-10-08T13:21:30;0.73;;;0.30;;
67195;SDS011;54122;53.538;49.366;2023-10-08T13:23:58;0.30;;;0.20;;
67195;SDS011;54122;53.538;49.366;2023-10-08T13:26:35;0.45;;;0.20;;
67195;SDS011;54122;53.538;49.366;2023-10-08T13:29:14;3.03;;;0.20;;
67195;SDS011;54122;53.538;49.366;2023-10-08T13:31:44;3.15;;;0.35;;
67195;SDS011;54122;53.538;49.366;2023-10-08T13:34:16;0.70;;;0.17;;
67195;SDS011;54122;53.538;49.366;2023-10-08T13:36:42;0.20;;;0.10;;
67195;SDS011;54122;53.538;49.366;2023-10-08T13:39:14;0.65;;;0.20;;
67195;SDS011;54122;53.538;49.366;2023-10-08T13:41:44;0.40;;;0.20;;
67195;SDS011;54122;53.538;49.366;2023-10-08T13:44:14;2.90;;;0.25;;
67195;SDS011;54122;53.538;49.366;2023-10-08T13:46:40;0.85;;;0.63;;
67195;SDS011;54122;53.538;49.366;2023-10-08T13:49:19;0.40;;;0.22;;
67195;SDS011;54122;53.538;49.366;2023-10-08T13:52:00;0.88;;;0.20;;
67195;SDS011;54122;53.538;49.366;2023-10-08T13:54:27;3.20;;;0.10;;
67195;SDS011;54122;53.538;49.366;2023-10-08T13:56:58;0.85;;;0.43;;
67195;SDS011;54122;53.538;49.366;2023-10-08T13:59:30;0.40;;;0.17;;
67195;SDS011;54122;53.538;49.366;2023-10-08T14:01:57;0.80;;;0.40;;
67195;SDS011;54122;53.538;49.366;2023-10-08T14:04:28;0.25;;;0.10;;
67195;SDS011;54122;53.538;49.366;2023-10-08T14:07:05;0.30;;;0.20;;
67195;SDS011;54122;53.538;49.366;2023-10-08T14:09:33;0.30;;;0.22;;
67195;SDS011;54122;53.538;49.366;2023-10-08T14:12:03;0.43;;;0.30;;
67195;SDS011;54122;53.538;49.366;2023-10-08T14:14:32;0.30;;;0.20;;
67195;SDS011;54122;53.538;49.366;2023-10-08T14:17:00;0.10;;;0.10;;
67195;SDS011;54122;53.538;49.366;2023-10-08T14:19:36;0.17;;;0.10;;
67195;SDS011;54122;53.538;49.366;2023-10-08T14:22:25;0.60;;;0.10;;
67195;SDS011;54122;53.538;49.366;2023-10-08T14:24:52;0.55;;;0.30;;
67195;SDS011;54122;53.538;49.366;2023-10-08T14:29:57;0.40;;;0.20;;
67195;SDS011;54122;53.538;49.366;2023-10-08T14:32:27;0.93;;;0.40;;
67195;SDS011;54122;53.538;49.366;2023-10-08T14:34:54;1.02;;;0.40;;
67195;SDS011;54122;53.538;49.366;2023-10-08T14:37:21;4.22;;;0.30;;
67195;SDS011;54122;53.538;49.366;2023-10-08T14:40:07;1.58;;;0.22;;
67195;SDS011;54122;53.538;49.366;2023-10-08T14:42:55;1.02;;;0.40;;
67195;SDS011;54122;53.538;49.366;2023-10-08T14:45:23;0.63;;;0.20;;
67195;SDS011;54122;53.538;49.366;2023-10-08T14:48:01;2.03;;;0.30;;
67195;SDS011;54122;53.538;49.366;2023-10-08T14:50:29;0.22;;;0.10;;
67195;SDS011;54122;53.538;49.366;2023-10-08T14:52:59;0.10;;;0.10;;
67195;SDS011;54122;53.538;49.366;2023-10-08T14:55:27;1.20;;;0.10;;
67195;SDS011;54122;53.538;49.366;2023-10-08T14:57:55;0.30;;;0.28;;
67195;SDS011;54122;53.538;49.366;2023-10-08T15:00:22;0.63;;;0.40;;
67195;SDS011;54122;53.538;49.366;2023-10-08T15:02:52;0.10;;;0.10;;
67195;SDS011;54122;53.538;49.366;2023-10-08T15:05:23;0.57;;;0.35;;
67195;SDS011;54122;53.538;49.366;2023-10-08T15:07:50;1.23;;;0.22;;
67195;SDS011;54122;53.538;49.366;2023-10-08T15:10:21;2.63;;;0.35;;
67195;SDS011;54122;53.538;49.366;2023-10-08T15:12:50;0.50;;;0.13;;
67195;SDS011;54122;53.538;49.366;2023-10-08T15:15:28;0.22;;;0.10;;
67195;SDS011;54122;53.538;49.366;2023-10-08T15:18:00;0.77;;;0.40;;
67195;SDS011;54122;53.538;49.366;2023-10-08T15:20:37;0.52;;;0.35;;
67195;SDS011;54122;53.538;49.366;2023-10-08T15:23:06;0.43;;;0.20;;